Time;durP1;ratioP1;P1;durP2;ratioP2;P2;SDS_P1;SDS_P2;PMS_P1;PMS_P2;Temp;Humidity;BMP_temperature;BMP_pressure;BME280_temperature;BME280_humidity;BME280_pressure;Samples;Min_cycle;Max_cycle;Signal;HPM_P1;HPM_P2
2022/03/26 00:00:13;;;;;;;6.43;5.93;;;24.70;46.10;;;;;;4978795;28;20444;-81
2022/03/26 00:02:42;;;;;;;6.20;5.60;;;24.60;45.90;;;;;;4978586;28;20450;-82
2022/03/26 00:05:09;;;;;;;5.70;5.30;;;24.60;46.20;;;;;;4978201;28;20472;-84
2022/03/26 00:07:36;;;;;;;6.77;5.70;;;24.60;46.10;;;;;;4978524;28;20448;-82
2022/03/26 00:10:04;;;;;;;6.87;6.30;;;24.60;46.10;;;;;;4978125;28;20441;-83
2022/03/26 00:12:31;;;;;;;5.63;5.23;;;24.60;46.10;;;;;;4978321;28;20452;-84
2022/03/26 00:14:58;;;;;;;7.37;6.70;;;24.60;46.20;;;;;;4978552;28;20445;-83
2022/03/26 00:17:25;;;;;;;7.13;6.53;;;24.60;46.00;;;;;;4977878;28;20445;-82
2022/03/26 00:19:54;;;;;;;4.87;4.47;;;24.60;46.20;;;;;;4978176;28;20952;-84
2022/03/26 00:22:21;;;;;;;6.40;5.90;;;24.60;46.20;;;;;;4978292;28;20778;-84
2022/03/26 00:24:48;;;;;;;6.73;6.17;;;24.60;46.10;;;;;;4979311;28;20492;-83
2022/03/26 00:27:15;;;;;;;6.00;5.43;;;24.60;46.10;;;;;;4978160;28;20970;-83
2022/03/26 00:29:41;;;;;;;7.90;7.20;;;24.60;46.10;;;;;;4978065;28;20475;-82
2022/03/26 00:32:09;;;;;;;6.40;5.80;;;24.60;46.00;;;;;;4977907;28;20449;-83
2022/03/26 00:34:36;;;;;;;6.07;5.63;;;24.60;46.00;;;;;;4977500;28;20495;-83
2022/03/26 00:37:05;;;;;;;5.90;5.40;;;24.60;46.20;;;;;;4977579;28;20446;-82
2022/03/26 00:39:32;;;;;;;6.73;6.13;;;24.60;46.10;;;;;;4977793;28;20449;-84
2022/03/26 00:41:59;;;;;;;7.03;6.43;;;24.60;46.10;;;;;;4977949;28;20456;-84
2022/03/26 00:44:26;;;;;;;6.93;6.33;;;24.60;46.00;;;;;;4977456;28;20448;-84
2022/03/26 00:46:52;;;;;;;6.83;6.33;;;24.60;46.00;;;;;;4977568;28;20496;-82
2022/03/26 00:49:20;;;;;;;5.60;5.20;;;24.60;46.10;;;;;;4977707;28;20442;-84
2022/03/26 00:51:47;;;;;;;5.50;5.10;;;24.60;46.20;;;;;;4977547;28;20450;-84
2022/03/26 00:54:16;;;;;;;6.30;5.80;;;24.60;46.10;;;;;;4977499;28;20456;-83
2022/03/26 00:56:43;;;;;;;6.30;5.70;;;24.60;46.10;;;;;;4961075;28;20793;-82
2022/03/26 00:59:10;;;;;;;5.30;4.90;;;24.50;46.10;;;;;;4977370;28;20441;-84
2022/03/26 01:01:38;;;;;;;6.10;5.70;;;24.70;46.20;;;;;;4976031;28;20448;-84
2022/03/26 01:04:05;;;;;;;5.37;4.97;;;24.50;46.00;;;;;;4977250;28;20460;-82
2022/03/26 01:06:31;;;;;;;6.47;5.83;;;24.50;46.00;;;;;;4976987;28;20481;-84
2022/03/26 01:08:58;;;;;;;5.50;5.10;;;24.50;46.10;;;;;;4977046;28;20448;-84
2022/03/26 01:11:27;;;;;;;5.80;5.13;;;24.50;46.10;;;;;;4977233;28;20516;-82
2022/03/26 01:13:56;;;;;;;6.23;5.73;;;24.50;46.10;;;;;;4977213;28;20452;-83
2022/03/26 01:16:23;;;;;;;6.50;6.00;;;24.50;46.10;;;;;;4976876;28;20540;-83
2022/03/26 01:18:50;;;;;;;5.80;5.30;;;24.50;46.00;;;;;;4977022;28;20446;-85
2022/03/26 01:21:17;;;;;;;5.63;5.13;;;24.50;46.10;;;;;;4976759;28;20920;-84
2022/03/26 01:23:46;;;;;;;5.27;4.87;;;24.50;46.10;;;;;;4976802;28;20450;-84
2022/03/26 01:26:13;;;;;;;5.73;5.23;;;24.50;46.20;;;;;;4976902;28;20567;-83
2022/03/26 01:28:42;;;;;;;5.57;5.17;;;24.50;46.10;;;;;;4976871;28;20449;-85
2022/03/26 01:31:09;;;;;;;5.77;5.23;;;24.50;46.10;;;;;;4976971;28;20933;-84
2022/03/26 01:33:36;;;;;;;5.77;5.30;;;24.50;46.20;;;;;;4976904;28;20488;-85
2022/03/26 01:39:36;;;;;;;5.87;5.47;;;24.50;46.20;;;;;;4976968;28;20453;-83
2022/03/26 01:42:05;;;;;;;4.97;4.57;;;24.40;46.10;;;;;;4976662;28;20446;-82
2022/03/26 01:44:33;;;;;;;5.20;4.80;;;24.40;46.10;;;;;;4976399;28;20971;-84
2022/03/26 01:47:01;;;;;;;6.40;5.80;;;24.40;46.10;;;;;;4976499;28;20481;-84
2022/03/26 01:49:28;;;;;;;4.90;4.50;;;24.40;46.10;;;;;;4976682;28;20457;-84
2022/03/26 01:51:55;;;;;;;5.47;4.97;;;24.40;46.10;;;;;;4976713;28;20443;-84
2022/03/26 01:54:22;;;;;;;5.00;4.60;;;24.60;46.20;;;;;;4976403;28;20448;-85
2022/03/26 01:56:50;;;;;;;4.60;4.30;;;24.40;46.10;;;;;;4976728;28;20453;-85
2022/03/26 01:59:19;;;;;;;5.80;5.30;;;24.40;46.10;;;;;;4976270;28;20449;-83
2022/03/26 02:01:47;;;;;;;5.97;5.40;;;24.40;46.10;;;;;;4976260;28;20449;-83
2022/03/26 02:04:14;;;;;;;5.60;5.20;;;24.40;46.10;;;;;;4976011;28;20941;-83
2022/03/26 02:06:41;;;;;;;4.97;4.57;;;24.40;46.00;;;;;;4976219;28;20493;-82
2022/03/26 02:09:09;;;;;;;4.87;4.57;;;24.40;46.10;;;;;;4976161;28;20461;-84
2022/03/26 02:11:37;;;;;;;5.40;4.90;;;24.40;46.10;;;;;;4975783;28;20449;-83
2022/03/26 02:14:07;;;;;;;5.73;5.23;;;24.40;46.00;;;;;;4975976;28;20453;-81
2022/03/26 02:16:34;;;;;;;5.23;4.83;;;24.50;46.10;;;;;;4975994;28;20508;-81
2022/03/26 02:19:03;;;;;;;4.50;4.20;;;24.40;46.10;;;;;;4976182;28;20448;-81
2022/03/26 02:21:34;;;;;;;5.10;4.77;;;24.40;46.00;;;;;;4975588;28;20441;-83
2022/03/26 02:24:02;;;;;;;4.93;4.63;;;24.40;46.00;;;;;;4975882;28;20469;-81
2022/03/26 02:26:29;;;;;;;5.20;4.80;;;24.40;46.00;;;;;;4975727;28;20497;-83
2022/03/26 02:28:57;;;;;;;5.00;4.60;;;24.40;46.00;;;;;;4975785;28;20448;-84
2022/03/26 02:31:26;;;;;;;4.90;4.50;;;24.40;46.00;;;;;;4975480;28;20444;-83
2022/03/26 02:33:54;;;;;;;5.07;4.67;;;24.40;46.00;;;;;;4975537;28;20531;-83
2022/03/26 02:36:20;;;;;;;4.77;4.47;;;24.40;46.00;;;;;;4976155;28;20802;-83
2022/03/26 02:38:48;;;;;;;5.30;4.83;;;24.50;46.10;;;;;;4976079;28;20925;-85
2022/03/26 02:41:16;;;;;;;5.63;5.13;;;24.40;46.00;;;;;;4976330;28;20445;-84
2022/03/26 02:43:43;;;;;;;5.60;5.20;;;24.40;46.00;;;;;;4976483;28;20505;-84
2022/03/26 02:46:09;;;;;;;4.90;4.60;;;24.40;46.00;;;;;;4975694;28;20488;-83
2022/03/26 02:48:39;;;;;;;5.43;5.03;;;24.40;46.00;;;;;;4975814;28;20441;-83
2022/03/26 02:51:06;;;;;;;4.57;4.20;;;24.30;45.90;;;;;;4975467;28;20794;-82
2022/03/26 02:53:33;;;;;;;6.00;5.57;;;24.30;45.90;;;;;;4975454;28;20453;-82
2022/03/26 02:56:01;;;;;;;5.10;4.80;;;24.40;45.90;;;;;;4975230;28;20453;-81
2022/03/26 02:58:28;;;;;;;5.50;5.10;;;24.40;45.90;;;;;;4975367;28;20445;-82
2022/03/26 03:00:55;;;;;;;6.07;5.60;;;24.30;45.80;;;;;;4974994;28;20941;-83
2022/03/26 03:03:21;;;;;;;5.00;4.70;;;24.40;45.90;;;;;;4975193;28;20449;-85
2022/03/26 03:05:48;;;;;;;5.60;5.20;;;24.40;45.90;;;;;;4975032;28;20559;-84
2022/03/26 03:08:15;;;;;;;5.27;4.87;;;24.40;46.50;;;;;;4974976;28;20448;-83
2022/03/26 03:10:42;;;;;;;5.37;4.87;;;24.50;46.00;;;;;;4975236;28;20441;-85
2022/03/26 03:13:10;;;;;;;5.53;5.03;;;24.50;46.00;;;;;;4975025;28;20940;-82
2022/03/26 03:15:38;;;;;;;5.10;4.70;;;24.30;45.80;;;;;;4975971;28;20449;-83
2022/03/26 03:18:04;;;;;;;5.00;4.60;;;24.30;45.90;;;;;;4975770;28;20492;-82
2022/03/26 03:20:31;;;;;;;4.93;4.57;;;24.30;45.90;;;;;;4974915;28;20445;-82
2022/03/26 03:23:00;;;;;;;5.43;4.93;;;24.50;46.00;;;;;;4974910;28;20809;-81
2022/03/26 03:25:29;;;;;;;5.40;5.00;;;24.30;45.90;;;;;;4974159;28;20504;-83
2022/03/26 03:27:56;;;;;;;4.77;4.47;;;24.40;45.90;;;;;;4974918;28;20453;-82
2022/03/26 03:30:24;;;;;;;5.30;4.90;;;24.30;45.80;;;;;;4975025;28;20485;-81
2022/03/26 03:32:51;;;;;;;5.47;4.67;;;24.30;45.80;;;;;;4974765;28;20445;-81
2022/03/26 03:35:18;;;;;;;5.20;4.70;;;24.30;45.80;;;;;;4974942;28;20441;-82
2022/03/26 03:37:45;;;;;;;4.40;4.00;;;24.30;45.80;;;;;;4974853;28;20450;-82
2022/03/26 03:40:13;;;;;;;4.93;4.53;;;24.30;45.70;;;;;;4974558;28;20940;-83
2022/03/26 03:42:40;;;;;;;4.90;4.60;;;24.30;45.80;;;;;;4974792;28;20843;-82
2022/03/26 03:45:08;;;;;;;4.63;4.30;;;24.30;45.80;;;;;;4974872;28;20449;-83
2022/03/26 03:47:37;;;;;;;5.50;5.00;;;24.30;45.70;;;;;;4974654;28;20580;-81
2022/03/26 03:50:04;;;;;;;4.67;4.37;;;24.30;45.70;;;;;;4974756;28;20455;-82
2022/03/26 03:52:31;;;;;;;5.27;4.87;;;24.30;45.70;;;;;;4974588;28;20449;-83
2022/03/26 03:54:58;;;;;;;5.00;4.60;;;24.40;45.80;;;;;;4974663;28;20456;-82
2022/03/26 03:57:24;;;;;;;4.87;4.47;;;24.30;45.70;;;;;;4974674;28;20453;-83
2022/03/26 03:59:52;;;;;;;5.93;5.43;;;24.30;45.70;;;;;;4974868;28;20446;-83
2022/03/26 04:02:19;;;;;;;5.10;4.70;;;24.30;45.70;;;;;;4975111;28;20449;-82
2022/03/26 04:04:47;;;;;;;4.10;3.80;;;24.30;45.70;;;;;;4975547;28;20437;-84
2022/03/26 04:07:14;;;;;;;4.40;4.10;;;24.30;45.70;;;;;;4975299;28;20484;-84
2022/03/26 04:09:41;;;;;;;4.80;4.50;;;24.30;45.70;;;;;;4974771;28;20932;-84
2022/03/26 04:12:09;;;;;;;4.77;4.37;;;24.30;45.70;;;;;;4974905;28;20456;-83
2022/03/26 04:14:38;;;;;;;4.43;4.10;;;24.30;45.70;;;;;;4975076;28;20445;-81
2022/03/26 04:17:06;;;;;;;5.00;4.60;;;24.30;45.70;;;;;;4974636;28;20540;-83
2022/03/26 04:19:32;;;;;;;4.43;4.13;;;24.30;45.70;;;;;;4974533;28;20448;-84
2022/03/26 04:22:01;;;;;;;4.90;4.60;;;24.30;45.60;;;;;;4974559;28;20458;-82
2022/03/26 04:24:27;;;;;;;4.67;4.27;;;24.30;45.60;;;;;;4974536;28;20843;-82
2022/03/26 04:26:54;;;;;;;5.20;4.80;;;24.30;45.60;;;;;;4974115;28;21026;-82
2022/03/26 04:29:21;;;;;;;4.90;4.57;;;24.30;45.60;;;;;;4974303;28;20456;-82
2022/03/26 04:31:48;;;;;;;5.33;4.93;;;24.30;45.60;;;;;;4974458;28;20457;-84
2022/03/26 04:34:14;;;;;;;4.53;4.20;;;24.30;45.60;;;;;;4980929;28;20477;-83
2022/03/26 04:36:41;;;;;;;4.67;4.27;;;24.30;45.60;;;;;;4998761;28;20460;-83
2022/03/26 04:39:09;;;;;;;5.70;5.23;;;24.30;45.60;;;;;;4989816;28;20445;-81
2022/03/26 04:41:37;;;;;;;5.13;4.73;;;24.20;45.50;;;;;;4987191;28;20464;-81
2022/03/26 04:44:05;;;;;;;4.57;4.27;;;24.20;45.50;;;;;;4977762;28;20492;-81
2022/03/26 04:46:32;;;;;;;5.00;4.60;;;24.20;45.50;;;;;;4977818;28;20493;-81
2022/03/26 04:48:59;;;;;;;5.57;4.20;;;24.30;45.60;;;;;;4977544;28;20448;-81
2022/03/26 04:51:26;;;;;;;5.30;4.80;;;24.20;45.50;;;;;;4977720;28;21021;-82
2022/03/26 04:53:53;;;;;;;4.53;4.20;;;24.30;45.50;;;;;;4977983;28;20457;-81
2022/03/26 04:56:21;;;;;;;4.70;4.40;;;24.30;45.50;;;;;;4977407;28;20445;-81
2022/03/26 04:58:48;;;;;;;5.40;4.80;;;24.30;45.60;;;;;;4977138;28;20446;-82
2022/03/26 05:01:16;;;;;;;4.20;3.90;;;24.20;45.50;;;;;;4977230;28;20485;-81
2022/03/26 05:03:42;;;;;;;4.30;4.00;;;24.40;45.60;;;;;;4976906;28;20500;-82
2022/03/26 05:06:09;;;;;;;5.00;4.60;;;24.20;45.50;;;;;;4977366;28;20448;-81
2022/03/26 05:08:37;;;;;;;4.53;4.23;;;24.20;45.50;;;;;;4977270;28;20453;-81
2022/03/26 05:11:05;;;;;;;4.77;4.30;;;24.30;45.50;;;;;;4977072;28;20457;-82
2022/03/26 05:13:33;;;;;;;4.57;4.17;;;24.20;45.50;;;;;;4977137;28;20790;-81
2022/03/26 05:16:02;;;;;;;5.17;4.67;;;24.20;45.50;;;;;;4977289;28;20445;-81
2022/03/26 05:18:28;;;;;;;4.20;3.90;;;24.20;45.40;;;;;;4977097;28;20446;-81
2022/03/26 05:20:56;;;;;;;4.50;4.20;;;24.20;45.40;;;;;;4977072;28;20441;-81
2022/03/26 05:23:23;;;;;;;4.20;3.90;;;24.20;45.40;;;;;;4977033;28;20492;-81
2022/03/26 05:25:50;;;;;;;5.50;5.10;;;24.20;45.40;;;;;;4976942;28;20445;-82
2022/03/26 05:28:17;;;;;;;5.57;4.73;;;24.20;45.40;;;;;;4976891;28;20489;-82
2022/03/26 05:30:45;;;;;;;5.07;4.67;;;24.20;45.40;;;;;;4976643;28;20456;-82
2022/03/26 05:33:12;;;;;;;4.80;4.40;;;24.20;45.40;;;;;;4976621;28;20829;-81
2022/03/26 05:35:39;;;;;;;4.97;4.67;;;24.20;45.40;;;;;;4976865;28;20430;-83
2022/03/26 05:38:06;;;;;;;4.50;4.10;;;24.20;45.40;;;;;;4976695;28;20545;-83
2022/03/26 05:40:33;;;;;;;4.83;4.43;;;24.20;45.40;;;;;;4976711;28;20449;-82
2022/03/26 05:42:59;;;;;;;4.87;4.50;;;24.20;45.40;;;;;;4976286;28;20921;-83
2022/03/26 05:45:28;;;;;;;4.13;3.83;;;24.20;45.40;;;;;;4976833;28;20498;-82
2022/03/26 05:48:01;;;;;;;4.90;4.60;;;24.20;45.40;;;;;;4975528;28;21000;-82
2022/03/26 05:50:29;;;;;;;4.90;4.50;;;24.20;45.30;;;;;;4976645;28;20477;-82
2022/03/26 05:52:55;;;;;;;5.30;4.90;;;24.20;45.40;;;;;;4976604;28;20454;-82
2022/03/26 05:55:22;;;;;;;4.03;3.77;;;24.30;45.40;;;;;;4976471;28;20452;-82
2022/03/26 05:57:49;;;;;;;5.00;4.63;;;24.20;45.40;;;;;;4976567;28;20445;-82
2022/03/26 06:00:17;;;;;;;4.33;4.03;;;24.20;45.40;;;;;;4977381;28;20958;-82
2022/03/26 06:02:44;;;;;;;4.20;3.90;;;24.20;45.40;;;;;;4976792;28;20449;-82
2022/03/26 06:05:12;;;;;;;5.30;4.90;;;24.20;45.40;;;;;;4976239;28;20517;-84
2022/03/26 06:07:39;;;;;;;4.60;4.30;;;24.20;45.40;;;;;;4975807;28;20489;-83
2022/03/26 06:10:08;;;;;;;4.33;4.03;;;24.20;45.40;;;;;;4976417;28;20449;-83
2022/03/26 06:12:35;;;;;;;4.17;3.87;;;24.20;45.40;;;;;;4976095;28;20445;-82
2022/03/26 06:15:03;;;;;;;4.20;3.90;;;24.10;45.30;;;;;;4976160;28;20503;-84
2022/03/26 06:17:30;;;;;;;5.03;4.67;;;24.20;45.40;;;;;;4976030;28;20449;-83
2022/03/26 06:19:57;;;;;;;4.60;4.30;;;24.10;45.40;;;;;;4975950;28;20875;-84
2022/03/26 06:22:25;;;;;;;4.63;4.27;;;24.30;46.10;;;;;;4976909;28;20445;-84
2022/03/26 06:24:53;;;;;;;4.30;4.00;;;24.10;45.30;;;;;;4975885;28;20449;-83
2022/03/26 06:27:20;;;;;;;4.90;4.53;;;24.20;45.40;;;;;;4975473;28;20481;-83
2022/03/26 06:29:47;;;;;;;4.23;3.93;;;24.10;45.40;;;;;;4976015;28;20450;-84
2022/03/26 06:32:14;;;;;;;4.97;4.57;;;24.20;45.40;;;;;;4975904;28;20813;-86
2022/03/26 06:34:42;;;;;;;4.83;4.20;;;24.20;45.40;;;;;;4975297;28;20524;-85
2022/03/26 06:37:08;;;;;;;4.87;4.47;;;24.10;45.40;;;;;;4975623;28;20449;-85
2022/03/26 06:39:37;;;;;;;5.17;4.03;;;24.10;45.50;;;;;;4975254;28;20453;-83
2022/03/26 06:42:04;;;;;;;4.63;4.23;;;24.10;45.40;;;;;;4975568;28;20456;-84
2022/03/26 06:44:33;;;;;;;4.83;4.43;;;24.10;45.50;;;;;;4978229;28;20824;-83
2022/03/26 06:47:00;;;;;;;5.00;4.60;;;24.10;45.40;;;;;;4958431;28;20484;-81
2022/03/26 06:49:30;;;;;;;3.73;3.43;;;24.10;45.60;;;;;;4975566;28;20457;-82
2022/03/26 06:51:57;;;;;;;4.40;4.10;;;24.10;45.50;;;;;;4975671;28;20917;-82
2022/03/26 06:54:24;;;;;;;4.73;4.40;;;24.10;45.50;;;;;;4975317;28;20457;-83
2022/03/26 06:56:52;;;;;;;4.43;4.13;;;24.10;45.60;;;;;;4975442;28;20472;-87
2022/03/26 06:59:19;;;;;;;15.50;13.50;;;24.10;45.60;;;;;;4975127;28;20441;-83
2022/03/26 07:01:45;;;;;;;14.13;11.20;;;24.10;45.50;;;;;;4975222;28;20461;-82
2022/03/26 07:04:12;;;;;;;23.53;16.30;;;24.10;45.40;;;;;;4975373;28;20446;-82
2022/03/26 07:06:39;;;;;;;25.47;19.07;;;23.90;45.40;;;;;;4975238;28;20449;-83
2022/03/26 07:09:06;;;;;;;30.47;19.60;;;23.70;45.40;;;;;;4975059;28;20452;-83
2022/03/26 07:11:32;;;;;;;29.90;22.37;;;23.40;45.50;;;;;;4976074;28;20433;-86
2022/03/26 07:14:00;;;;;;;25.90;22.00;;;23.30;45.60;;;;;;4975197;28;20445;-84
2022/03/26 07:16:27;;;;;;;32.60;24.10;;;23.30;45.90;;;;;;4975043;28;20800;-83
2022/03/26 07:18:55;;;;;;;28.57;21.97;;;23.00;46.00;;;;;;4974703;28;20453;-82
2022/03/26 07:21:22;;;;;;;25.50;22.67;;;22.80;46.00;;;;;;4974988;28;20445;-83
2022/03/26 07:23:49;;;;;;;24.63;21.97;;;22.80;46.40;;;;;;4975014;28;20461;-83
2022/03/26 07:26:16;;;;;;;24.53;22.17;;;22.60;46.40;;;;;;4974841;28;20948;-82
2022/03/26 07:28:43;;;;;;;34.37;23.97;;;22.80;46.60;;;;;;4975190;28;20536;-82
2022/03/26 07:31:11;;;;;;;28.57;23.60;;;22.50;46.60;;;;;;4975086;28;20804;-85
2022/03/26 07:33:38;;;;;;;34.63;24.77;;;22.40;46.90;;;;;;4974835;28;20477;-83
2022/03/26 07:36:05;;;;;;;29.03;23.50;;;22.50;47.20;;;;;;4975299;28;20445;-86
2022/03/26 07:38:32;;;;;;;30.57;23.03;;;22.30;46.90;;;;;;4975163;28;20528;-83
2022/03/26 07:40:59;;;;;;;29.40;24.03;;;22.30;47.10;;;;;;4974924;28;20864;-88
2022/03/26 07:43:25;;;;;;;38.27;24.27;;;22.20;47.20;;;;;;4974909;28;20445;-84
2022/03/26 07:45:52;;;;;;;26.97;24.10;;;22.30;47.10;;;;;;4974777;28;20453;-85
2022/03/26 07:48:20;;;;;;;27.57;23.53;;;22.40;47.20;;;;;;4974790;28;20491;-87
2022/03/26 07:50:49;;;;;;;30.73;21.90;;;22.50;47.00;;;;;;4975378;28;20453;-84
2022/03/26 07:53:17;;;;;;;29.80;23.43;;;22.50;47.40;;;;;;4974752;28;20445;-88
2022/03/26 07:55:43;;;;;;;32.33;23.77;;;22.50;47.60;;;;;;4974613;28;20445;-83
2022/03/26 07:58:10;;;;;;;30.77;22.90;;;22.70;47.60;;;;;;4974683;28;20437;-83
2022/03/26 08:00:38;;;;;;;29.50;23.30;;;22.50;47.40;;;;;;4974738;28;20445;-83
2022/03/26 08:03:05;;;;;;;29.60;24.50;;;22.50;47.30;;;;;;4974605;28;20934;-85
2022/03/26 08:05:33;;;;;;;30.40;21.53;;;22.60;47.10;;;;;;4974782;28;20452;-94
2022/03/26 08:07:59;;;;;;;29.17;22.23;;;22.70;47.20;;;;;;4974843;28;20983;-84
2022/03/26 08:10:26;;;;;;;34.33;23.20;;;22.70;47.20;;;;;;4976097;28;20437;-82
2022/03/26 08:12:53;;;;;;;29.80;22.77;;;22.70;47.40;;;;;;4978300;28;20573;-82
2022/03/26 08:15:20;;;;;;;29.70;22.20;;;22.70;47.40;;;;;;4978471;28;20441;-81
2022/03/26 08:17:47;;;;;;;19.10;15.80;;;22.80;47.70;;;;;;4977923;28;20455;-82
2022/03/26 08:20:15;;;;;;;26.63;19.90;;;22.80;47.70;;;;;;4977995;28;20457;-81
2022/03/26 08:22:43;;;;;;;23.40;16.77;;;23.00;47.80;;;;;;4977532;28;20446;-80
2022/03/26 08:25:10;;;;;;;23.40;17.90;;;22.90;47.60;;;;;;4977629;28;20449;-81
2022/03/26 08:27:37;;;;;;;23.80;17.97;;;22.90;47.70;;;;;;4977478;28;20524;-81
2022/03/26 08:30:07;;;;;;;20.13;16.87;;;22.90;47.50;;;;;;4978069;28;20454;-81
2022/03/26 08:32:34;;;;;;;21.30;15.33;;;23.00;47.60;;;;;;4977558;28;20481;-84
2022/03/26 08:35:01;;;;;;;22.50;17.80;;;23.00;47.50;;;;;;4977392;28;20494;-81
2022/03/26 08:37:27;;;;;;;23.83;14.60;;;23.00;47.50;;;;;;4977311;28;20952;-81
2022/03/26 08:39:56;;;;;;;17.50;15.60;;;23.10;47.60;;;;;;4977348;28;20442;-83
2022/03/26 08:42:24;;;;;;;18.20;16.00;;;23.10;47.50;;;;;;4959866;28;20461;-81
2022/03/26 08:44:50;;;;;;;20.97;14.80;;;23.10;47.50;;;;;;4977212;28;20818;-81
2022/03/26 08:47:17;;;;;;;20.77;13.53;;;23.20;47.50;;;;;;4977137;28;20457;-81
2022/03/26 08:49:45;;;;;;;14.17;10.77;;;23.30;47.50;;;;;;4977150;28;20472;-80
2022/03/26 08:52:12;;;;;;;10.80;9.80;;;23.30;47.20;;;;;;4977420;28;20433;-83
2022/03/26 08:54:38;;;;;;;11.07;9.97;;;23.40;47.00;;;;;;4977213;28;20441;-81
2022/03/26 08:57:08;;;;;;;9.90;8.90;;;23.40;46.90;;;;;;4977309;28;20441;-81
2022/03/26 08:59:35;;;;;;;12.60;8.97;;;23.50;46.80;;;;;;4976998;28;20937;-84
2022/03/26 09:02:02;;;;;;;9.60;8.50;;;23.60;46.90;;;;;;4976956;28;20447;-81
2022/03/26 09:04:28;;;;;;;9.63;8.03;;;23.60;46.80;;;;;;4976989;28;20445;-81
2022/03/26 09:06:55;;;;;;;8.53;7.73;;;23.80;46.90;;;;;;4977178;28;20438;-81
2022/03/26 09:09:22;;;;;;;8.17;7.40;;;23.60;46.70;;;;;;4977007;28;20492;-81
2022/03/26 09:11:49;;;;;;;9.23;8.43;;;23.60;46.60;;;;;;4976789;28;20454;-81
2022/03/26 09:14:17;;;;;;;10.07;7.77;;;23.70;46.70;;;;;;4977019;28;20449;-81
2022/03/26 09:16:44;;;;;;;7.80;7.03;;;23.70;46.60;;;;;;4976655;28;20964;-81
2022/03/26 09:19:11;;;;;;;9.10;7.47;;;23.80;46.70;;;;;;4976697;28;20463;-81
2022/03/26 09:21:37;;;;;;;7.00;6.27;;;23.80;46.60;;;;;;4976087;28;20457;-82
2022/03/26 09:24:05;;;;;;;10.10;7.60;;;23.80;46.50;;;;;;4976748;28;20472;-81
2022/03/26 09:26:31;;;;;;;7.83;7.03;;;23.90;46.60;;;;;;4976505;28;20445;-84
2022/03/26 09:28:58;;;;;;;7.10;6.20;;;23.80;46.50;;;;;;4976745;28;20496;-81
2022/03/26 09:31:26;;;;;;;7.40;6.13;;;23.90;46.50;;;;;;4976543;28;20937;-81
2022/03/26 09:33:53;;;;;;;6.93;6.33;;;23.90;46.50;;;;;;4976455;28;20473;-81
2022/03/26 09:36:20;;;;;;;6.47;5.80;;;24.00;46.50;;;;;;4959503;28;20445;-81
2022/03/26 09:38:46;;;;;;;6.27;5.30;;;24.00;46.50;;;;;;4977132;28;20461;-81
2022/03/26 09:41:14;;;;;;;6.33;5.60;;;24.00;46.50;;;;;;4977299;28;20545;-81
2022/03/26 09:43:41;;;;;;;8.67;6.00;;;24.00;46.50;;;;;;4977267;28;20449;-80
2022/03/26 09:46:07;;;;;;;6.07;5.47;;;24.00;46.40;;;;;;4976543;28;20464;-81
2022/03/26 09:48:37;;;;;;;6.20;5.70;;;24.00;46.40;;;;;;4976405;28;20495;-84
2022/03/26 09:51:05;;;;;;;6.93;5.10;;;24.10;46.50;;;;;;4976006;28;20481;-81
2022/03/26 09:53:32;;;;;;;5.43;4.93;;;24.10;46.50;;;;;;4976352;28;20441;-82
2022/03/26 09:55:59;;;;;;;5.90;5.40;;;24.10;46.50;;;;;;4976259;28;20457;-81
2022/03/26 09:58:26;;;;;;;4.97;4.57;;;24.10;46.40;;;;;;4976416;28;20794;-81
2022/03/26 10:00:53;;;;;;;5.50;5.10;;;24.10;46.50;;;;;;4975906;28;20449;-81
2022/03/26 10:03:20;;;;;;;4.37;4.03;;;24.10;46.40;;;;;;4976156;28;20500;-81
2022/03/26 10:05:48;;;;;;;6.37;5.30;;;24.10;46.40;;;;;;4976223;28;20449;-82
2022/03/26 10:08:20;;;;;;;6.17;4.73;;;24.10;46.40;;;;;;4976047;28;20504;-85
2022/03/26 10:10:48;;;;;;;4.60;4.20;;;24.20;46.40;;;;;;4976110;28;20437;-81
2022/03/26 10:13:35;;;;;;;5.43;4.80;;;24.10;46.30;;;;;;4975712;28;20445;-83
2022/03/26 10:16:02;;;;;;;5.03;4.37;;;24.30;46.40;;;;;;4975929;28;20540;-81
2022/03/26 10:18:37;;;;;;;5.03;4.63;;;24.20;46.40;;;;;;4975886;28;20449;-81
2022/03/26 10:21:07;;;;;;;4.83;4.33;;;24.20;46.30;;;;;;4975837;28;20471;-82
2022/03/26 10:23:34;;;;;;;5.47;3.60;;;24.20;46.30;;;;;;4976363;28;20441;-81
2022/03/26 10:26:09;;;;;;;4.63;4.23;;;24.20;46.40;;;;;;4975729;28;20447;-80
2022/03/26 10:28:36;;;;;;;4.27;3.97;;;24.20;46.40;;;;;;4975266;28;20480;-80
2022/03/26 10:34:08;;;;;;;4.60;4.23;;;24.20;46.50;;;;;;4975204;28;20463;-80
2022/03/26 10:36:43;;;;;;;4.20;3.90;;;24.20;46.50;;;;;;4975574;28;20440;-81
2022/03/26 10:39:16;;;;;;;4.00;3.60;;;24.30;46.70;;;;;;4975490;28;20452;-82
2022/03/26 10:41:43;;;;;;;4.10;3.80;;;24.20;46.60;;;;;;4975453;28;20433;-80
2022/03/26 10:44:12;;;;;;;4.00;3.70;;;24.20;46.60;;;;;;4975161;28;20448;-81
2022/03/26 10:46:47;;;;;;;3.63;3.33;;;24.30;46.70;;;;;;4975449;28;20444;-80
2022/03/26 10:49:16;;;;;;;3.40;3.20;;;24.30;46.70;;;;;;4975199;28;20488;-80
2022/03/26 10:51:45;;;;;;;4.20;3.90;;;24.30;46.80;;;;;;4975287;28;20447;-81
2022/03/26 10:54:12;;;;;;;3.17;2.93;;;24.30;46.70;;;;;;4975313;28;20929;-81
2022/03/26 10:56:40;;;;;;;4.47;4.17;;;24.30;46.70;;;;;;4975147;28;20548;-81
2022/03/26 10:59:07;;;;;;;3.53;3.33;;;24.30;46.70;;;;;;4975144;28;20481;-81
2022/03/26 11:01:34;;;;;;;3.87;3.57;;;24.30;46.70;;;;;;4975174;28;20445;-80
2022/03/26 11:04:01;;;;;;;4.03;3.73;;;24.30;46.70;;;;;;4975066;28;20441;-80
2022/03/26 11:06:29;;;;;;;3.60;3.30;;;24.30;46.70;;;;;;4975183;28;20472;-80
2022/03/26 11:09:00;;;;;;;3.80;3.30;;;24.30;46.70;;;;;;4974741;28;20484;-81
2022/03/26 11:11:28;;;;;;;3.73;3.43;;;24.40;46.80;;;;;;4975537;28;20448;-83
2022/03/26 11:14:00;;;;;;;4.00;3.70;;;24.40;46.80;;;;;;4975013;28;20520;-84
2022/03/26 11:16:37;;;;;;;4.37;4.00;;;24.40;46.80;;;;;;4975643;28;20433;-81
2022/03/26 11:19:17;;;;;;;3.70;3.40;;;24.40;46.80;;;;;;4975129;28;20524;-84
2022/03/26 11:22:01;;;;;;;2.77;2.57;;;24.40;46.80;;;;;;4975042;28;20495;-84
2022/03/26 11:24:45;;;;;;;3.20;3.00;;;24.40;46.90;;;;;;4974891;28;20429;-84
2022/03/26 11:27:33;;;;;;;3.97;3.67;;;24.40;46.90;;;;;;4975005;28;20529;-81
2022/03/26 11:30:05;;;;;;;3.00;2.80;;;24.40;46.90;;;;;;4974855;28;20956;-81
2022/03/26 11:32:36;;;;;;;4.07;3.67;;;24.40;46.90;;;;;;4975005;28;20437;-81
2022/03/26 11:35:05;;;;;;;3.17;2.97;;;24.40;46.90;;;;;;4974362;28;20513;-82
2022/03/26 11:37:32;;;;;;;3.40;3.10;;;24.40;46.90;;;;;;4974815;28;20492;-80
2022/03/26 11:40:00;;;;;;;3.40;3.10;;;24.40;46.80;;;;;;4974798;28;20449;-81
2022/03/26 11:42:35;;;;;;;2.87;2.67;;;24.40;46.90;;;;;;4974827;28;20443;-81
2022/03/26 11:51:14;;;;;;;3.50;3.20;;;24.40;46.80;;;;;;4978719;28;20490;-81
2022/03/26 11:53:44;;;;;;;3.10;2.90;;;24.60;47.00;;;;;;4978608;28;20493;-81
2022/03/26 11:56:21;;;;;;;3.37;3.07;;;24.40;46.90;;;;;;4979229;28;20524;-82
2022/03/26 11:59:04;;;;;;;2.60;2.40;;;24.50;46.90;;;;;;4978199;28;20507;-81
2022/03/26 12:01:36;;;;;;;2.87;2.67;;;24.50;46.90;;;;;;4978404;28;20456;-82
2022/03/26 12:04:10;;;;;;;2.30;2.20;;;24.50;46.90;;;;;;4978140;28;20983;-82
2022/03/26 12:06:42;;;;;;;2.73;2.53;;;24.50;47.00;;;;;;4978876;28;20425;-84
2022/03/26 12:09:11;;;;;;;3.10;2.90;;;24.50;46.90;;;;;;4978112;28;20473;-81
2022/03/26 12:12:13;;;;;;;3.57;3.10;;;24.50;46.90;;;;;;4978233;28;20859;-81
2022/03/26 12:15:13;;;;;;;3.07;2.87;;;24.50;46.80;;;;;;4978371;28;20531;-81
2022/03/26 12:17:44;;;;;;;3.00;2.80;;;24.50;46.90;;;;;;4978671;28;20437;-82
2022/03/26 12:20:23;;;;;;;3.17;2.83;;;24.50;47.00;;;;;;4978564;28;20437;-81
2022/03/26 12:22:51;;;;;;;3.00;2.80;;;24.50;47.00;;;;;;4978011;28;20437;-80
2022/03/26 12:25:18;;;;;;;3.27;2.57;;;24.50;46.90;;;;;;4977954;28;20859;-81
2022/03/26 12:27:46;;;;;;;3.73;2.80;;;24.50;46.90;;;;;;4977878;28;20456;-80
2022/03/26 12:30:14;;;;;;;2.60;2.40;;;24.50;47.00;;;;;;4978022;28;20496;-80
2022/03/26 12:32:43;;;;;;;2.80;2.60;;;24.50;46.90;;;;;;4977830;28;20485;-81
2022/03/26 12:35:10;;;;;;;2.80;2.43;;;24.50;47.00;;;;;;4977596;28;20975;-80
2022/03/26 12:37:38;;;;;;;2.70;2.50;;;24.50;47.00;;;;;;4977994;28;20794;-80
2022/03/26 12:40:07;;;;;;;2.67;2.50;;;24.50;47.00;;;;;;4978136;28;20490;-80
2022/03/26 12:42:34;;;;;;;2.87;2.67;;;24.50;47.00;;;;;;4977686;28;20445;-83
2022/03/26 12:45:14;;;;;;;2.50;2.30;;;24.50;47.00;;;;;;4977411;28;20440;-81
2022/03/26 12:47:44;;;;;;;2.20;2.10;;;24.60;47.00;;;;;;4977783;28;20485;-80
2022/03/26 12:50:11;;;;;;;2.20;2.10;;;24.60;47.00;;;;;;4977690;28;20971;-81
2022/03/26 12:52:39;;;;;;;2.90;2.70;;;24.50;47.00;;;;;;4977155;28;20936;-80
2022/03/26 12:55:07;;;;;;;2.27;2.17;;;24.50;47.00;;;;;;4977409;28;20442;-84
2022/03/26 13:00:26;;;;;;;2.80;2.60;;;24.60;47.00;;;;;;4977492;28;20518;-81
2022/03/26 13:03:07;;;;;;;2.53;2.33;;;24.50;47.00;;;;;;4977416;28;20446;-83